Vandenberg Air Force Base Lompoc US
ICAO: KVBG
IATA: VBG
Category: Large
Scheduled Services: No

Elevation: 369 ft
TransAlt. 18000 ft.

Airport Communications:
SANTA BARB APP/DEP:124.15
COMD POST:31.1
ATIS:133.125
CTAF:124.95
GND/CLNC DEL:121.75
RANGE CON:121.4
PMSV METRO:34.24
PTD:126.2
TWR:124.95

KVBG Zoom In..

Runways:

(A) RW 12 length 15000 ft width 200 ft
ILS 110.10 / hdg 122

(B) RW 30 length 15000 ft width 200 ft
ILS 110.10 / hdg 302

Location; KVBG
Day. 11 / Time. 19.58 Zulu
* Altimeter: 30.05
* Temperature: 19° c. 66.2°f.
* Wind from: 300° Speed 07 kn.
Dewpoint: 13° c.
Visibility: 9 Statute Miles.
Clouds: Few 31000 ft.

KVBG 111958Z AUTO 30007KT 9SM FEW310 19/13 A3005 RMK AO2 SLP178 T01910131

Going to: --> -->


Wind From 300°
Speed 07 kn.

 
 
jpsmedia worldairports.se 2020   terms of use